DAOV

Ghriss Airport

Airport
ICAO code
DAOV
IATA Code
MUW
Summary
ICAO Region
AFI
ICAO Territory
Location

, Mascara

Serving
Ghriss
Elevation
1686 ft
Coordinates
35° 12' 28" N , 0° 8' 50" E
Metar
DAOV 270900Z 24010KT 9999 SCT016 FEW020CB SCT023 08/07 Q1011

Runways

Designator Length Width Surface Rops
8/26 1700 30 ASP No/No

Airport map

Aerial View

SKYbrary Partners:

Safety knowledge contributed by: